createdAt,value
2022-10-19T00:01:25.518Z,35.83
2022-10-19T00:03:56.446Z,37.99
2022-10-19T00:06:26.974Z,37.89
2022-10-19T00:09:04.525Z,38.78
2022-10-19T00:11:35.327Z,39.19
2022-10-19T00:14:04.747Z,39.39
2022-10-19T00:16:37.420Z,41.61
2022-10-19T00:19:10.513Z,41.46
2022-10-19T00:21:40.897Z,42.36
2022-10-19T00:24:10.440Z,43.95
2022-10-19T00:26:39.326Z,44.76
2022-10-19T00:29:08.449Z,46.63
2022-10-19T00:31:38.024Z,46.42
2022-10-19T00:34:06.790Z,46.63
2022-10-19T00:36:38.139Z,48.35
2022-10-19T00:39:08.464Z,48.06
2022-10-19T00:41:38.269Z,48.64
2022-10-19T00:44:17.110Z,49.74
2022-10-19T00:46:50.053Z,50.67
2022-10-19T00:49:28.657Z,51.69
2022-10-19T00:52:05.036Z,52.92
2022-10-19T00:54:35.048Z,51.91
2022-10-19T00:57:06.359Z,52.37
2022-10-19T00:59:35.983Z,52.90
2022-10-19T01:02:06.406Z,53.14
2022-10-19T01:04:39.470Z,53.90
2022-10-19T01:07:09.572Z,54.81
2022-10-19T01:09:38.060Z,55.71
2022-10-19T01:12:35.069Z,55.32
2022-10-19T01:15:09.678Z,56.49
2022-10-19T01:17:47.460Z,56.56
2022-10-19T01:20:45.989Z,56.72
2022-10-19T01:23:42.402Z,54.50
2022-10-19T01:26:16.503Z,56.67
2022-10-19T01:29:25.620Z,56.16
2022-10-19T01:32:41.388Z,57.45
2022-10-19T01:35:21.448Z,57.02
2022-10-19T01:38:09.130Z,57.11
2022-10-19T01:40:55.696Z,56.58
2022-10-19T01:43:34.988Z,55.25
2022-10-19T01:46:18.345Z,56.54
2022-10-19T01:48:56.226Z,56.98
2022-10-19T01:51:35.580Z,56.72
2022-10-19T01:54:13.289Z,56.76
2022-10-19T01:56:45.329Z,55.97
2022-10-19T01:59:15.724Z,55.85
2022-10-19T02:01:47.979Z,58.05
2022-10-19T02:04:20.272Z,56.98
2022-10-19T02:06:48.609Z,57.60
2022-10-19T02:09:19.571Z,58.34
2022-10-19T02:12:00.983Z,58.21
2022-10-19T02:14:35.294Z,58.90
2022-10-19T02:17:09.476Z,58.48
2022-10-19T02:19:38.535Z,58.76
2022-10-19T02:22:08.494Z,59.49
2022-10-19T02:24:36.964Z,59.92
2022-10-19T02:27:08.004Z,59.24
2022-10-19T02:29:38.574Z,59.54
2022-10-19T02:32:08.041Z,59.42
2022-10-19T02:34:38.071Z,57.77
2022-10-19T02:37:08.199Z,55.43
2022-10-19T02:39:36.786Z,57.46
2022-10-19T02:42:21.235Z,58.20
2022-10-19T02:44:59.496Z,56.97
2022-10-19T02:47:33.309Z,52.53
2022-10-19T02:50:02.634Z,52.79
2022-10-19T02:52:31.651Z,56.69
2022-10-19T02:55:00.208Z,57.34
2022-10-19T02:57:28.948Z,56.41
2022-10-19T02:59:57.421Z,57.98
2022-10-19T03:02:26.656Z,56.39
2022-10-19T03:04:55.116Z,52.90
2022-10-19T03:07:23.456Z,54.75
2022-10-19T03:09:52.234Z,55.25
2022-10-19T03:12:20.796Z,55.51
2022-10-19T03:14:49.353Z,54.38
2022-10-19T03:17:17.677Z,56.18
2022-10-19T03:19:46.479Z,57.50
2022-10-19T03:22:18.765Z,57.94
2022-10-19T03:24:47.239Z,59.53
2022-10-19T03:27:15.708Z,59.90
2022-10-19T03:29:44.280Z,59.03
2022-10-19T03:32:12.790Z,60.30
2022-10-19T03:34:44.219Z,61.19
2022-10-19T03:37:14.693Z,61.51
2022-10-19T03:39:43.148Z,62.79
2022-10-19T03:42:11.688Z,63.00
2022-10-19T03:44:40.165Z,61.06
2022-10-19T03:47:08.605Z,60.74
2022-10-19T03:49:39.548Z,59.65
2022-10-19T03:52:11.246Z,59.52
2022-10-19T03:54:39.895Z,60.57
2022-10-19T03:57:07.842Z,61.75
2022-10-19T03:59:36.300Z,61.63
2022-10-19T04:02:05.304Z,62.05
2022-10-19T04:04:33.894Z,62.16
2022-10-19T04:07:02.441Z,63.06
2022-10-19T04:09:31.067Z,63.23
2022-10-19T04:11:59.158Z,63.03
2022-10-19T04:14:33.068Z,62.13
2022-10-19T04:17:08.059Z,60.51
2022-10-19T04:19:36.528Z,59.92
2022-10-19T04:22:05.419Z,62.58
2022-10-19T04:24:34.038Z,63.95
2022-10-19T04:27:03.158Z,63.55
2022-10-19T04:29:31.670Z,64.29
2022-10-19T04:32:00.946Z,64.29
2022-10-19T04:34:29.448Z,64.49
2022-10-19T04:37:00.627Z,63.55
2022-10-19T04:39:29.174Z,64.55
2022-10-19T04:41:57.710Z,63.36
2022-10-19T04:44:26.335Z,64.45
2022-10-19T04:46:54.811Z,65.02
2022-10-19T04:49:23.391Z,64.91
2022-10-19T04:51:51.899Z,66.03
2022-10-19T04:54:20.362Z,66.94
2022-10-19T04:56:48.817Z,66.81
2022-10-19T04:59:17.439Z,65.63
2022-10-19T05:01:47.350Z,65.55
2022-10-19T05:04:16.006Z,66.01
2022-10-19T05:06:44.558Z,66.14
2022-10-19T05:09:13.196Z,66.54
2022-10-19T05:11:41.727Z,67.40
2022-10-19T05:14:10.327Z,68.56
2022-10-19T05:16:38.713Z,69.29
2022-10-19T05:19:07.184Z,68.99
2022-10-19T05:21:35.751Z,69.13
2022-10-19T05:24:04.588Z,70.98
2022-10-19T05:26:33.290Z,71.54
2022-10-19T05:29:04.008Z,71.68
2022-10-19T05:31:34.914Z,71.22
2022-10-19T05:34:05.081Z,70.64
2022-10-19T05:36:39.479Z,72.39
2022-10-19T05:39:10.945Z,71.49
2022-10-19T05:41:39.567Z,70.57
2022-10-19T05:44:07.918Z,70.34
2022-10-19T05:46:36.519Z,71.68
2022-10-19T05:49:05.249Z,70.90
2022-10-19T05:51:34.034Z,71.08
2022-10-19T05:54:02.095Z,70.58
2022-10-19T05:56:32.697Z,70.56
2022-10-19T05:59:04.564Z,70.67
2022-10-19T06:01:34.447Z,71.31
2022-10-19T06:04:04.599Z,71.05
2022-10-19T06:06:33.345Z,70.35
2022-10-19T06:09:02.362Z,70.67
2022-10-19T06:11:36.263Z,73.21
2022-10-19T06:14:07.589Z,72.56
2022-10-19T06:16:36.818Z,72.46
2022-10-19T06:19:06.608Z,72.77
2022-10-19T06:21:37.266Z,73.29
2022-10-19T06:24:08.011Z,73.26
2022-10-19T06:26:36.929Z,72.59
2022-10-19T06:29:06.288Z,73.54
2022-10-19T06:31:37.716Z,73.30
2022-10-19T06:34:06.715Z,73.20
2022-10-19T06:36:35.853Z,73.23
2022-10-19T06:39:05.109Z,72.45
2022-10-19T06:41:35.449Z,71.75
2022-10-19T06:44:03.788Z,70.89
2022-10-19T06:46:33.627Z,70.06
2022-10-19T06:49:03.687Z,70.67
2022-10-19T06:51:35.079Z,69.36
2022-10-19T06:54:04.564Z,69.22
2022-10-19T06:56:36.355Z,69.35
2022-10-19T06:59:05.040Z,69.04
2022-10-19T07:01:33.530Z,69.05
2022-10-19T07:04:02.137Z,69.38
2022-10-19T07:06:30.836Z,69.38
2022-10-19T07:08:59.425Z,69.51
2022-10-19T07:11:27.982Z,69.66
2022-10-19T07:13:56.692Z,70.50
2022-10-19T07:16:25.202Z,71.57
2022-10-19T07:18:54.914Z,71.90
2022-10-19T07:21:24.591Z,70.97
2022-10-19T07:23:52.937Z,71.28
2022-10-19T07:26:25.890Z,72.20
2022-10-19T07:28:56.367Z,73.81
2022-10-19T07:31:26.362Z,72.70
2022-10-19T07:33:56.584Z,73.08
2022-10-19T07:36:26.666Z,73.15
2022-10-19T07:38:54.780Z,73.45
2022-10-19T07:41:25.499Z,75.48
2022-10-19T07:43:55.328Z,75.78
2022-10-19T07:46:30.494Z,74.96
2022-10-19T07:48:59.048Z,75.56
2022-10-19T07:53:58.595Z,75.31
2022-10-19T07:56:29.061Z,75.47
2022-10-19T07:58:59.575Z,75.36
2022-10-19T08:01:30.891Z,74.99
2022-10-19T08:06:49.740Z,74.76
2022-10-19T08:09:39.940Z,75.25
2022-10-19T08:12:11.185Z,76.15
2022-10-19T08:14:43.303Z,74.76
2022-10-19T08:17:17.974Z,77.29
2022-10-19T08:19:48.384Z,77.29
2022-10-19T08:22:17.096Z,76.28
2022-10-19T08:24:46.154Z,75.51
2022-10-19T08:27:16.174Z,75.29
2022-10-19T08:29:44.749Z,76.05
2022-10-19T08:32:13.214Z,76.91
2022-10-19T08:34:41.817Z,76.93
2022-10-19T08:37:20.109Z,77.05
2022-10-19T08:39:58.882Z,78.18
2022-10-19T08:42:54.138Z,78.47
2022-10-19T08:45:37.830Z,79.54
2022-10-19T08:48:05.713Z,79.68
2022-10-19T08:50:41.457Z,79.14
2022-10-19T08:53:28.554Z,78.91
2022-10-19T08:56:04.709Z,79.22
2022-10-19T08:58:51.627Z,77.77
2022-10-19T09:01:23.153Z,78.31
2022-10-19T09:04:06.314Z,78.39
2022-10-19T09:07:10.160Z,77.82
2022-10-19T09:09:48.029Z,77.95
2022-10-19T09:12:21.283Z,77.77
2022-10-19T09:15:02.320Z,78.36
2022-10-19T09:17:33.741Z,79.16
2022-10-19T09:20:24.679Z,79.94
2022-10-19T09:23:06.718Z,80.22
2022-10-19T09:25:40.296Z,79.78
2022-10-19T09:28:39.920Z,79.38
2022-10-19T09:31:44.106Z,79.14
2022-10-19T09:34:38.127Z,78.47
2022-10-19T09:37:06.351Z,76.90
2022-10-19T09:39:36.558Z,77.00
2022-10-19T09:42:31.849Z,76.82
2022-10-19T09:45:03.371Z,76.91
2022-10-19T09:47:35.266Z,76.44
2022-10-19T09:50:09.768Z,76.61
2022-10-19T09:52:41.197Z,76.58
2022-10-19T09:55:27.990Z,76.70
2022-10-19T09:58:03.334Z,77.58
2022-10-19T10:00:43.531Z,78.03
2022-10-19T10:03:24.120Z,77.73
2022-10-19T10:05:53.223Z,76.81
2022-10-19T10:08:25.054Z,76.96
2022-10-19T10:11:13.333Z,77.43
2022-10-19T10:13:49.555Z,77.47
2022-10-19T10:16:21.808Z,77.85
2022-10-19T10:18:58.482Z,78.41
2022-10-19T10:21:36.592Z,78.06
2022-10-19T10:24:13.422Z,78.90
2022-10-19T10:26:44.644Z,78.09
2022-10-19T10:29:31.470Z,77.56
2022-10-19T10:32:21.677Z,77.48
2022-10-19T10:35:01.010Z,78.25
2022-10-19T10:37:49.468Z,77.96
2022-10-19T10:40:40.084Z,78.86
2022-10-19T10:43:18.202Z,80.35
2022-10-19T10:45:51.187Z,80.31
2022-10-19T10:48:28.239Z,80.34
2022-10-19T10:50:58.331Z,80.17
2022-10-19T10:53:47.432Z,80.96
2022-10-19T10:56:22.309Z,80.16
2022-10-19T10:59:00.867Z,79.69
2022-10-19T11:01:46.722Z,79.08
2022-10-19T11:04:30.110Z,78.87
2022-10-19T11:07:12.047Z,78.74
2022-10-19T11:09:46.319Z,79.43
2022-10-19T11:12:20.680Z,80.47
2022-10-19T11:15:02.769Z,80.90
2022-10-19T11:17:35.804Z,80.87
2022-10-19T11:20:06.895Z,81.04
2022-10-19T11:23:13.771Z,81.15
2022-10-19T11:25:45.353Z,80.99
2022-10-19T11:28:27.756Z,80.83
2022-10-19T11:31:03.959Z,81.20
2022-10-19T11:33:38.095Z,81.50
2022-10-19T11:36:15.642Z,81.52
2022-10-19T11:39:04.276Z,82.01
2022-10-19T11:42:04.810Z,81.59
2022-10-19T11:45:02.409Z,81.49
2022-10-19T11:47:55.976Z,81.86
2022-10-19T11:50:53.891Z,82.03
2022-10-19T11:53:58.979Z,82.04
2022-10-19T11:56:51.501Z,83.38
2022-10-19T11:59:49.268Z,85.47
2022-10-19T12:02:54.560Z,86.29
2022-10-19T12:05:29.200Z,86.76
2022-10-19T12:08:38.883Z,87.28
2022-10-19T12:11:10.248Z,86.58
2022-10-19T12:13:51.723Z,86.23
2022-10-19T12:16:23.133Z,86.72
2022-10-19T12:18:56.747Z,86.85
2022-10-19T12:21:32.613Z,86.28
2022-10-19T12:24:05.557Z,86.95
2022-10-19T12:26:38.380Z,86.32
2022-10-19T12:29:17.607Z,86.40
2022-10-19T12:31:47.714Z,86.58
2022-10-19T12:34:33.969Z,86.02
2022-10-19T12:37:30.942Z,85.06
2022-10-19T12:40:22.790Z,85.81
2022-10-19T12:43:09.726Z,85.40
2022-10-19T12:45:53.827Z,85.87
2022-10-19T12:48:25.782Z,86.03
2022-10-19T12:50:58.520Z,86.42
2022-10-19T12:53:32.809Z,86.45
2022-10-19T12:56:04.233Z,87.18
2022-10-19T12:58:48.155Z,86.91
2022-10-19T13:01:36.940Z,86.65
2022-10-19T13:04:19.622Z,87.05
2022-10-19T13:07:12.426Z,87.10
2022-10-19T13:09:44.472Z,87.72
2022-10-19T13:12:19.947Z,87.65
2022-10-19T13:14:53.574Z,87.19
2022-10-19T13:17:47.510Z,87.37
2022-10-19T13:20:15.449Z,88.43
2022-10-19T13:22:52.319Z,89.14
2022-10-19T13:25:29.786Z,88.90
2022-10-19T13:28:19.113Z,89.63
2022-10-19T13:30:47.273Z,89.03
2022-10-19T13:33:31.677Z,89.21
2022-10-19T13:36:03.462Z,89.22
2022-10-19T13:41:26.885Z,88.87
2022-10-19T13:44:21.468Z,88.68
2022-10-19T13:47:13.574Z,89.47
2022-10-19T13:49:54.532Z,90.44
2022-10-19T13:52:59.885Z,89.85
2022-10-19T13:56:03.151Z,89.85
2022-10-19T13:58:46.322Z,90.12
2022-10-19T14:01:45.669Z,89.89
2022-10-19T14:05:09.499Z,90.17
2022-10-19T14:08:03.173Z,89.38
2022-10-19T14:10:43.474Z,89.43
2022-10-19T14:13:23.698Z,89.22
2022-10-19T14:15:58.452Z,88.77
2022-10-19T14:18:31.591Z,88.71
2022-10-19T14:21:11.447Z,90.19
2022-10-19T14:23:41.614Z,89.47
2022-10-19T14:26:20.976Z,89.30
2022-10-19T14:28:56.311Z,89.68
2022-10-19T14:31:31.329Z,89.48
2022-10-19T14:34:03.752Z,89.25
2022-10-19T14:36:46.597Z,89.43
2022-10-19T14:39:32.108Z,89.39
2022-10-19T14:42:12.307Z,89.35
2022-10-19T14:44:44.061Z,89.39
2022-10-19T14:47:23.183Z,88.82
2022-10-19T14:49:52.519Z,88.07
2022-10-19T14:52:31.137Z,86.67
2022-10-19T14:55:03.163Z,85.22
2022-10-19T14:57:36.588Z,84.37
2022-10-19T15:00:16.597Z,83.95
2022-10-19T15:02:49.450Z,83.17
2022-10-19T15:05:22.825Z,82.94
2022-10-19T15:07:51.462Z,83.05
2022-10-19T15:10:44.493Z,83.45
2022-10-19T15:13:32.562Z,83.29
2022-10-19T15:16:01.097Z,83.36
2022-10-19T15:18:48.923Z,82.85
2022-10-19T15:21:22.976Z,81.06
2022-10-19T15:23:53.606Z,80.62
2022-10-19T15:26:28.258Z,78.55
2022-10-19T15:29:08.805Z,77.53
2022-10-19T15:31:37.427Z,76.85
2022-10-19T15:34:06.698Z,76.95
2022-10-19T15:36:35.310Z,76.75
2022-10-19T15:39:17.998Z,76.44
2022-10-19T15:41:53.232Z,76.05
2022-10-19T15:44:47.101Z,75.02
2022-10-19T15:47:21.057Z,74.88
2022-10-19T15:50:00.293Z,73.60
2022-10-19T15:52:31.658Z,73.33
2022-10-19T15:55:01.989Z,73.57
2022-10-19T15:57:36.370Z,72.63
2022-10-19T16:00:16.374Z,72.20
2022-10-19T16:02:44.967Z,71.84
2022-10-19T16:05:13.451Z,72.16
2022-10-19T16:07:43.303Z,72.05
2022-10-19T16:10:23.534Z,70.63
2022-10-19T16:12:52.177Z,69.44
2022-10-19T16:15:25.766Z,68.16
2022-10-19T16:17:57.654Z,68.25
2022-10-19T16:20:28.194Z,66.92
2022-10-19T16:22:57.033Z,66.46
2022-10-19T16:25:26.137Z,65.56
2022-10-19T16:27:54.628Z,64.61
2022-10-19T16:30:23.183Z,63.41
2022-10-19T16:32:51.712Z,63.13
2022-10-19T16:35:19.601Z,63.09
2022-10-19T16:37:48.130Z,61.98
2022-10-19T16:40:16.749Z,60.25
2022-10-19T16:42:45.259Z,60.08
2022-10-19T16:45:13.850Z,59.29
2022-10-19T16:47:42.214Z,59.69
2022-10-19T16:50:12.614Z,59.40
2022-10-19T16:52:41.162Z,57.84
2022-10-19T16:55:10.266Z,57.49
2022-10-19T16:57:39.044Z,56.96
2022-10-19T17:00:11.044Z,56.47
2022-10-19T17:02:41.945Z,56.66
2022-10-19T17:05:12.933Z,56.18
2022-10-19T17:07:41.548Z,55.59
2022-10-19T17:10:10.406Z,55.71
2022-10-19T17:12:42.132Z,56.04
2022-10-19T17:15:40.920Z,57.71
2022-10-19T17:18:00.929Z,57.64
2022-10-19T17:20:29.403Z,55.66
2022-10-19T17:22:58.446Z,55.39
2022-10-19T17:25:28.870Z,52.39
2022-10-19T17:27:57.771Z,50.64
2022-10-19T17:30:26.251Z,49.69
2022-10-19T17:32:54.857Z,49.57
2022-10-19T17:35:23.306Z,49.93
2022-10-19T17:37:51.821Z,48.92
2022-10-19T17:40:20.354Z,46.40
2022-10-19T17:42:48.801Z,45.60
2022-10-19T17:45:17.321Z,44.56
2022-10-19T17:47:45.228Z,45.35
2022-10-19T17:50:13.758Z,44.84
2022-10-19T17:52:42.217Z,44.13
2022-10-19T17:55:12.845Z,44.57
2022-10-19T17:57:41.822Z,43.80
2022-10-19T18:00:10.630Z,43.24
2022-10-19T18:02:39.196Z,42.59
2022-10-19T18:05:08.077Z,42.07
2022-10-19T18:07:36.746Z,40.82
2022-10-19T18:10:05.827Z,40.80
2022-10-19T18:12:34.290Z,39.13
2022-10-19T18:15:02.903Z,39.55
2022-10-19T18:17:31.528Z,39.64
2022-10-19T18:19:59.706Z,40.36
2022-10-19T18:22:28.823Z,38.88
2022-10-19T18:24:57.364Z,38.31
2022-10-19T18:27:25.933Z,36.32
2022-10-19T18:29:53.928Z,36.49
2022-10-19T18:32:22.403Z,36.47
2022-10-19T18:34:51.010Z,36.73
2022-10-19T18:37:19.526Z,36.19
2022-10-19T18:39:48.342Z,36.81
2022-10-19T18:42:17.665Z,37.67
2022-10-19T18:44:46.252Z,38.13
2022-10-19T18:47:14.763Z,38.78
2022-10-19T18:49:43.275Z,38.54
2022-10-19T18:52:11.824Z,38.35
2022-10-19T18:54:40.397Z,38.52
2022-10-19T18:57:08.890Z,38.60
2022-10-19T18:59:37.517Z,38.93
2022-10-19T19:02:13.575Z,38.20
2022-10-19T19:04:50.811Z,38.30
2022-10-19T19:07:20.675Z,38.20
2022-10-19T19:09:49.213Z,37.40
2022-10-19T19:12:17.811Z,36.58
2022-10-19T19:14:46.203Z,37.99
2022-10-19T19:17:14.664Z,37.66
2022-10-19T19:19:43.344Z,37.94
2022-10-19T19:22:12.248Z,36.42
2022-10-19T19:24:40.863Z,36.72
2022-10-19T19:27:09.644Z,37.17
2022-10-19T19:29:38.167Z,36.77
2022-10-19T19:32:06.956Z,36.98
2022-10-19T19:34:35.506Z,35.96
2022-10-19T19:37:07.250Z,34.43
2022-10-19T19:39:37.520Z,34.22
2022-10-19T19:42:06.125Z,35.04
2022-10-19T19:44:34.659Z,33.14
2022-10-19T19:47:03.307Z,33.36
2022-10-19T19:49:31.874Z,32.36
2022-10-19T19:52:00.369Z,32.69
2022-10-19T19:54:28.880Z,32.55
2022-10-19T19:56:57.485Z,31.64
2022-10-19T19:59:27.431Z,31.28
2022-10-19T20:01:55.996Z,31.49
2022-10-19T20:04:24.682Z,32.24
2022-10-19T20:06:53.159Z,30.90
2022-10-19T20:09:21.333Z,31.84
2022-10-19T20:11:49.876Z,31.00
2022-10-19T20:14:19.978Z,30.56
2022-10-19T20:16:48.426Z,30.12
2022-10-19T20:19:17.528Z,30.89
2022-10-19T20:21:46.422Z,30.47
2022-10-19T20:24:14.951Z,30.83
2022-10-19T20:26:43.460Z,30.75
2022-10-19T20:29:11.958Z,30.23
2022-10-19T20:31:41.575Z,30.79
2022-10-19T20:34:15.151Z,30.97
2022-10-19T20:36:44.107Z,30.87
2022-10-19T20:39:12.716Z,29.73
2022-10-19T20:41:41.251Z,30.17
2022-10-19T20:44:09.747Z,29.34
2022-10-19T20:46:38.419Z,29.57
2022-10-19T20:49:08.641Z,29.26
2022-10-19T20:51:40.265Z,29.58
2022-10-19T20:54:13.382Z,29.01
2022-10-19T20:56:43.140Z,28.83
2022-10-19T20:59:17.454Z,28.93
2022-10-19T21:01:47.928Z,28.99
2022-10-19T21:04:17.474Z,28.56
2022-10-19T21:06:48.526Z,28.43
2022-10-19T21:09:19.450Z,29.04
2022-10-19T21:11:49.066Z,28.97
2022-10-19T21:14:25.460Z,30.08
2022-10-19T21:16:57.820Z,29.79
2022-10-19T21:19:28.750Z,29.88
2022-10-19T21:22:03.196Z,29.51
2022-10-19T21:24:37.398Z,31.13
2022-10-19T21:27:10.261Z,30.52
2022-10-19T21:29:39.111Z,30.82
2022-10-19T21:32:07.591Z,30.88
2022-10-19T21:34:36.622Z,31.63
2022-10-19T21:37:05.379Z,31.71
2022-10-19T21:39:33.946Z,31.62
2022-10-19T21:42:02.508Z,31.34
2022-10-19T21:44:31.009Z,31.40
2022-10-19T21:46:59.465Z,32.20
2022-10-19T21:49:27.952Z,31.15
2022-10-19T21:51:56.682Z,31.21
2022-10-19T21:54:26.672Z,32.01
2022-10-19T21:56:57.199Z,31.34
2022-10-19T21:59:26.398Z,31.53
2022-10-19T22:01:56.227Z,32.46
2022-10-19T22:04:25.645Z,32.02
2022-10-19T22:06:54.193Z,31.85
2022-10-19T22:09:24.005Z,32.27
2022-10-19T22:11:52.744Z,31.97
2022-10-19T22:14:22.632Z,32.48
2022-10-19T22:16:51.147Z,33.59
2022-10-19T22:19:19.682Z,32.67
2022-10-19T22:21:49.001Z,33.19
2022-10-19T22:24:17.389Z,33.35
2022-10-19T22:26:48.174Z,33.68
2022-10-19T22:29:16.933Z,33.99
2022-10-19T22:31:46.596Z,34.60
2022-10-19T22:34:18.885Z,33.88
2022-10-19T22:36:47.357Z,34.03
2022-10-19T22:39:15.991Z,33.76
2022-10-19T22:41:44.637Z,34.06
2022-10-19T22:44:13.372Z,33.43
2022-10-19T22:46:41.855Z,33.84
2022-10-19T22:49:10.606Z,34.45
2022-10-19T22:51:39.118Z,34.12
2022-10-19T22:54:07.502Z,34.32
2022-10-19T22:56:36.040Z,34.37
2022-10-19T22:59:06.591Z,34.83
2022-10-19T23:01:35.348Z,34.92
2022-10-19T23:04:04.186Z,34.83
2022-10-19T23:06:32.775Z,34.75
2022-10-19T23:09:01.307Z,35.97
2022-10-19T23:11:29.994Z,35.66
2022-10-19T23:13:58.482Z,35.05
2022-10-19T23:19:00.234Z,35.31
2022-10-19T23:21:28.802Z,36.67
2022-10-19T23:23:57.877Z,37.24
2022-10-19T23:26:26.509Z,35.55
2022-10-19T23:28:55.026Z,36.19
2022-10-19T23:31:31.365Z,35.68
2022-10-19T23:33:59.854Z,36.33
2022-10-19T23:36:30.200Z,35.35
2022-10-19T23:39:00.334Z,36.67
2022-10-19T23:41:28.682Z,35.67
2022-10-19T23:43:57.295Z,35.64
2022-10-19T23:46:25.947Z,35.96
2022-10-19T23:48:54.516Z,36.87
2022-10-19T23:51:23.859Z,37.10
2022-10-19T23:53:53.958Z,37.85
2022-10-19T23:56:30.453Z,38.81
2022-10-19T23:58:59.019Z,39.55
